Baldwin, Arkansas
Current Conditions -  °F | °C
As of 12:53 AM on Friday 31 Oct 2014 (Local Time) from KFYV Reporting Station
Clear Clear  
Wind Chill: 51°   Ceiling: Unl
Heat Index: 51°   Visibility: 10mi
Dew Point: 39°   Wind: 5mph
Humidity: 63%   Direction: 350°N
Pressure: 30.15"   Gusts: NA
Location:  35.9902°N, 94.083°W
Report Text: KFYV 310553Z AUTO 35004KT 10SM CLR 11/04 A3015 RMK AO2 SLP203 T01060039 10156 20072 402060017 51010
Loading
Personal Weather Stations






























Interactive Weather Map
Tropical Storm Tracking
New forecast layout! Learn more

10-Day Weather Forecast

Advertisements
Track Severe Weather on mobile